createdAt,value
2022-10-03T00:03:36.285Z,1.13
2022-10-03T00:07:57.346Z,1.13
2022-10-03T00:12:14.506Z,1.38
2022-10-03T00:16:24.770Z,1.00
2022-10-03T00:20:47.990Z,1.50
2022-10-03T00:25:07.687Z,0.82
2022-10-03T00:29:26.172Z,1.60
2022-10-03T00:33:40.229Z,1.25
2022-10-03T00:37:58.362Z,1.33
2022-10-03T00:42:55.872Z,1.13
2022-10-03T00:47:30.111Z,1.17
2022-10-03T00:51:46.235Z,1.15
2022-10-03T00:56:03.846Z,1.25
2022-10-03T01:00:19.424Z,1.48
2022-10-03T01:04:34.867Z,1.08
2022-10-03T01:09:00.140Z,1.65
2022-10-03T01:13:18.368Z,1.70
2022-10-03T01:17:33.604Z,1.63
2022-10-03T01:21:48.219Z,1.75
2022-10-03T01:25:59.444Z,2.00
2022-10-03T01:30:25.385Z,1.52
2022-10-03T01:34:32.690Z,1.48
2022-10-03T01:38:41.962Z,1.98
2022-10-03T01:42:55.958Z,2.67
2022-10-03T01:47:19.085Z,2.10
2022-10-03T01:55:39.211Z,1.70
2022-10-03T01:59:52.043Z,1.60
2022-10-03T02:04:07.621Z,2.15
2022-10-03T02:08:25.178Z,1.58
2022-10-03T02:12:35.658Z,2.53
2022-10-03T02:16:45.389Z,2.45
2022-10-03T02:20:55.453Z,2.13
2022-10-03T02:25:21.650Z,2.13
2022-10-03T02:29:48.714Z,2.63
2022-10-03T02:34:33.902Z,2.50
2022-10-03T02:39:08.990Z,2.20
2022-10-03T02:43:54.418Z,2.85
2022-10-03T02:48:33.823Z,2.50
2022-10-03T02:53:15.239Z,3.17
2022-10-03T02:58:06.250Z,2.35
2022-10-03T03:02:36.961Z,2.80
2022-10-03T03:07:15.735Z,3.60
2022-10-03T03:11:51.803Z,2.75
2022-10-03T03:16:30.020Z,2.08
2022-10-03T03:20:49.352Z,2.50
2022-10-03T03:25:12.186Z,2.30
2022-10-03T03:29:26.408Z,2.42
2022-10-03T03:33:40.564Z,2.78
2022-10-03T03:37:57.046Z,2.78
2022-10-03T03:42:14.577Z,2.60
2022-10-03T03:46:31.362Z,3.13
2022-10-03T03:50:48.502Z,3.42
2022-10-03T03:55:29.476Z,3.70
2022-10-03T03:59:47.838Z,3.00
2022-10-03T04:04:02.174Z,3.08
2022-10-03T04:08:26.413Z,3.80
2022-10-03T04:12:44.724Z,3.20
2022-10-03T04:17:18.103Z,3.58
2022-10-03T04:21:42.129Z,3.15
2022-10-03T04:26:18.663Z,4.00
2022-10-03T04:30:32.647Z,3.92
2022-10-03T04:34:48.041Z,2.90
2022-10-03T04:39:04.532Z,3.72
2022-10-03T04:43:17.310Z,3.88
2022-10-03T04:47:28.136Z,3.53
2022-10-03T04:51:52.032Z,3.50
2022-10-03T04:56:13.283Z,3.28
2022-10-03T05:00:25.334Z,3.15
2022-10-03T05:04:37.831Z,3.30
2022-10-03T05:08:51.022Z,2.63
2022-10-03T05:13:01.767Z,2.50
2022-10-03T05:17:21.057Z,3.20
2022-10-03T05:21:33.442Z,2.92
2022-10-03T05:25:53.331Z,3.03
2022-10-03T05:30:03.585Z,3.47
2022-10-03T05:34:23.410Z,3.35
2022-10-03T05:39:04.699Z,2.70
2022-10-03T05:43:24.215Z,2.40
2022-10-03T05:47:48.464Z,2.25
2022-10-03T05:52:12.689Z,2.83
2022-10-03T05:56:28.958Z,2.70
2022-10-03T06:00:50.990Z,2.55
2022-10-03T06:05:13.043Z,2.92
2022-10-03T06:09:42.456Z,3.53
2022-10-03T06:14:08.200Z,3.20
2022-10-03T06:18:33.795Z,3.08
2022-10-03T06:23:19.718Z,3.58
2022-10-03T06:28:03.642Z,3.03
2022-10-03T06:32:33.684Z,2.83
2022-10-03T06:37:07.707Z,2.67
2022-10-03T06:41:56.071Z,2.55
2022-10-03T06:46:32.269Z,2.25
2022-10-03T06:51:09.309Z,4.68
2022-10-03T06:55:42.241Z,3.53
2022-10-03T07:00:12.112Z,3.25
2022-10-03T07:04:53.921Z,3.05
2022-10-03T07:09:31.662Z,3.65
2022-10-03T07:14:11.485Z,3.83
2022-10-03T07:19:01.855Z,3.20
2022-10-03T07:23:41.007Z,3.50
2022-10-03T07:28:03.997Z,3.03
2022-10-03T07:37:14.300Z,3.00
2022-10-03T07:41:45.390Z,3.10
2022-10-03T07:46:14.301Z,3.55
2022-10-03T07:50:45.474Z,2.95
2022-10-03T07:55:22.776Z,2.90
2022-10-03T08:00:12.688Z,3.15
2022-10-03T08:04:58.452Z,3.22
2022-10-03T08:09:29.761Z,3.63
2022-10-03T08:13:44.375Z,3.22
2022-10-03T08:18:14.248Z,2.50
2022-10-03T08:22:31.518Z,2.55
2022-10-03T08:26:49.925Z,2.55
2022-10-03T08:31:19.820Z,2.40
2022-10-03T08:35:42.208Z,1.83
2022-10-03T08:40:00.676Z,2.33
2022-10-03T08:44:52.010Z,2.78
2022-10-03T08:49:27.769Z,1.92
2022-10-03T08:53:57.131Z,1.95
2022-10-03T08:58:23.936Z,2.80
2022-10-03T09:02:54.616Z,2.42
2022-10-03T09:07:44.869Z,2.30
2022-10-03T09:12:09.124Z,2.07
2022-10-03T09:16:45.750Z,2.75
2022-10-03T09:21:23.585Z,2.13
2022-10-03T09:25:43.522Z,2.40
2022-10-03T09:30:29.601Z,2.88
2022-10-03T09:34:57.863Z,2.65
2022-10-03T09:39:21.500Z,2.58
2022-10-03T09:43:53.165Z,2.58
2022-10-03T09:48:34.096Z,2.28
2022-10-03T09:52:53.742Z,1.50
2022-10-03T09:57:29.496Z,1.60
2022-10-03T10:01:41.270Z,1.35
2022-10-03T10:06:08.812Z,1.57
2022-10-03T10:11:04.361Z,2.13
2022-10-03T10:15:33.261Z,1.65
2022-10-03T10:19:54.935Z,1.58
2022-10-03T10:24:16.883Z,1.10
2022-10-03T10:28:46.817Z,1.60
2022-10-03T10:33:32.080Z,1.38
2022-10-03T10:37:59.748Z,1.45
2022-10-03T10:42:39.849Z,1.13
2022-10-03T10:47:18.982Z,1.00
2022-10-03T10:52:14.205Z,0.90
2022-10-03T10:56:57.179Z,1.27
2022-10-03T11:01:30.553Z,1.10
2022-10-03T11:06:13.580Z,1.33
2022-10-03T11:10:39.367Z,1.00
2022-10-03T11:15:36.773Z,0.68
2022-10-03T11:20:21.505Z,0.65
2022-10-03T11:25:02.096Z,0.95
2022-10-03T11:29:41.813Z,1.02
2022-10-03T11:34:49.926Z,0.80
2022-10-03T11:39:05.209Z,0.75
2022-10-03T11:43:36.709Z,0.60
2022-10-03T11:47:51.651Z,0.75
2022-10-03T11:52:06.438Z,1.50
2022-10-03T11:56:22.078Z,0.93
2022-10-03T12:00:25.915Z,0.95
2022-10-03T12:04:44.049Z,0.82
2022-10-03T12:09:03.614Z,1.25
2022-10-03T12:13:15.756Z,1.02
2022-10-03T12:17:29.827Z,0.73
2022-10-03T12:21:46.558Z,0.63
2022-10-03T12:25:54.697Z,0.90
2022-10-03T12:30:02.710Z,1.02
2022-10-03T12:34:33.685Z,1.30
2022-10-03T12:38:51.398Z,0.60
2022-10-03T12:43:15.956Z,0.90
2022-10-03T12:47:56.529Z,0.90
2022-10-03T12:52:07.772Z,1.15
2022-10-03T12:56:31.771Z,0.80
2022-10-03T13:00:58.673Z,1.00
2022-10-03T13:09:48.632Z,0.63
2022-10-03T13:14:08.161Z,1.17
2022-10-03T13:18:45.329Z,0.75
2022-10-03T13:23:05.030Z,1.30
2022-10-03T13:27:35.476Z,1.05
2022-10-03T13:31:51.341Z,1.27
2022-10-03T13:36:24.091Z,1.33
2022-10-03T13:40:45.185Z,1.42
2022-10-03T13:44:56.212Z,0.85
2022-10-03T13:49:21.166Z,1.05
2022-10-03T13:53:59.528Z,0.95
2022-10-03T13:58:33.756Z,1.02
2022-10-03T14:03:00.128Z,1.30
2022-10-03T14:07:12.468Z,1.00
2022-10-03T14:11:26.695Z,1.27
2022-10-03T14:15:47.901Z,0.70
2022-10-03T14:20:20.648Z,0.73
2022-10-03T14:24:55.325Z,0.80
2022-10-03T14:29:32.206Z,0.80
2022-10-03T14:33:47.037Z,0.73
2022-10-03T14:38:12.202Z,0.60
2022-10-03T14:42:39.166Z,1.35
2022-10-03T14:46:58.736Z,0.68
2022-10-03T14:51:21.879Z,1.15
2022-10-03T14:55:35.951Z,0.98
2022-10-03T14:59:55.526Z,1.08
2022-10-03T15:04:18.762Z,0.80
2022-10-03T15:08:38.490Z,1.20
2022-10-03T15:12:51.443Z,0.50
2022-10-03T15:21:05.502Z,0.80
2022-10-03T15:25:17.956Z,1.08
2022-10-03T15:29:25.651Z,1.10
2022-10-03T15:33:32.977Z,0.82
2022-10-03T15:37:47.610Z,1.10
2022-10-03T15:41:57.514Z,1.00
2022-10-03T15:46:06.723Z,0.90
2022-10-03T15:50:21.698Z,1.00
2022-10-03T15:54:33.890Z,0.60
2022-10-03T15:58:41.739Z,0.50
2022-10-03T16:02:56.628Z,0.90
2022-10-03T16:07:09.944Z,0.68
2022-10-03T16:11:20.856Z,1.20
2022-10-03T16:15:29.393Z,1.40
2022-10-03T16:19:40.291Z,0.93
2022-10-03T16:23:47.243Z,0.75
2022-10-03T16:27:59.971Z,0.90
2022-10-03T16:32:08.700Z,0.82
2022-10-03T16:36:21.375Z,1.10
2022-10-03T16:40:30.642Z,0.90
2022-10-03T16:49:20.665Z,0.57
2022-10-03T16:53:24.509Z,0.90
2022-10-03T16:57:34.574Z,1.40
2022-10-03T17:01:45.707Z,1.27
2022-10-03T17:05:53.628Z,0.93
2022-10-03T17:09:59.285Z,0.90
2022-10-03T17:14:08.049Z,1.00
2022-10-03T17:18:24.709Z,1.27
2022-10-03T17:22:38.239Z,0.82
2022-10-03T17:26:44.112Z,0.73
2022-10-03T17:30:52.585Z,0.60
2022-10-03T17:35:02.167Z,0.57
2022-10-03T17:39:12.020Z,0.90
2022-10-03T17:43:24.748Z,1.00
2022-10-03T17:47:38.993Z,0.43
2022-10-03T17:51:45.047Z,0.80
2022-10-03T17:55:54.739Z,0.98
2022-10-03T18:00:03.479Z,0.50
2022-10-03T18:04:14.463Z,1.08
2022-10-03T18:08:23.026Z,0.57
2022-10-03T18:12:35.778Z,0.75
2022-10-03T18:16:44.687Z,1.30
2022-10-03T18:20:52.289Z,1.10
2022-10-03T18:24:59.108Z,1.05
2022-10-03T18:29:17.755Z,0.90
2022-10-03T18:33:27.669Z,0.85
2022-10-03T18:38:00.192Z,0.80
2022-10-03T18:42:03.861Z,1.02
2022-10-03T18:46:26.519Z,1.20
2022-10-03T18:50:33.470Z,1.30
2022-10-03T18:54:45.777Z,0.80
2022-10-03T18:59:12.903Z,2.03
2022-10-03T19:03:22.459Z,1.20
2022-10-03T19:07:28.132Z,0.73
2022-10-03T19:11:37.900Z,0.93
2022-10-03T19:15:53.747Z,2.13
2022-10-03T19:20:02.357Z,1.13
2022-10-03T19:24:12.393Z,1.50
2022-10-03T19:28:21.097Z,1.02
2022-10-03T19:32:28.638Z,1.63
2022-10-03T19:36:41.833Z,1.70
2022-10-03T19:40:53.198Z,1.52
2022-10-03T19:44:58.951Z,1.92
2022-10-03T19:49:22.304Z,2.15
2022-10-03T19:53:27.395Z,1.48
2022-10-03T19:57:41.530Z,1.65
2022-10-03T20:01:46.662Z,1.45
2022-10-03T20:05:58.930Z,2.20
2022-10-03T20:10:17.886Z,1.80
2022-10-03T20:14:27.143Z,2.10
2022-10-03T20:18:34.658Z,2.03
2022-10-03T20:22:38.971Z,1.70
2022-10-03T20:26:50.824Z,1.73
2022-10-03T20:30:54.991Z,1.50
2022-10-03T20:35:00.423Z,1.95
2022-10-03T20:39:12.046Z,2.00
2022-10-03T20:43:42.381Z,1.58
2022-10-03T20:47:58.125Z,1.75
2022-10-03T20:52:03.782Z,1.58
2022-10-03T20:56:12.413Z,1.73
2022-10-03T21:00:23.085Z,1.50
2022-10-03T21:04:31.457Z,1.58
2022-10-03T21:08:38.969Z,2.00
2022-10-03T21:12:46.991Z,2.60
2022-10-03T21:16:53.105Z,2.40
2022-10-03T21:21:07.950Z,1.63
2022-10-03T21:25:22.290Z,1.58
2022-10-03T21:29:30.454Z,1.77
2022-10-03T21:33:40.772Z,1.58
2022-10-03T21:37:50.861Z,1.65
2022-10-03T21:42:14.777Z,2.03
2022-10-03T21:46:27.281Z,2.30
2022-10-03T21:50:42.814Z,2.25
2022-10-03T21:54:58.133Z,2.13
2022-10-03T21:59:20.434Z,1.98
2022-10-03T22:03:28.127Z,1.80
2022-10-03T22:07:40.643Z,2.30
2022-10-03T22:11:47.509Z,3.58
2022-10-03T22:15:55.107Z,2.38
2022-10-03T22:20:15.375Z,1.50
2022-10-03T22:24:28.875Z,1.77
2022-10-03T22:28:47.165Z,2.03
2022-10-03T22:33:04.160Z,2.28
2022-10-03T22:37:07.520Z,1.90
2022-10-03T22:41:18.098Z,1.83
2022-10-03T22:45:24.674Z,1.73
2022-10-03T22:49:35.653Z,2.10
2022-10-03T22:53:40.911Z,1.95
2022-10-03T22:57:47.414Z,1.50
2022-10-03T23:01:53.275Z,1.98
2022-10-03T23:06:19.470Z,1.83
2022-10-03T23:10:35.574Z,1.80
2022-10-03T23:14:44.793Z,1.25
2022-10-03T23:19:02.901Z,2.15
2022-10-03T23:23:16.094Z,1.85
2022-10-03T23:27:45.719Z,2.28
2022-10-03T23:31:59.679Z,2.28
2022-10-03T23:36:06.642Z,1.90
2022-10-03T23:40:39.090Z,1.95
2022-10-03T23:44:49.609Z,1.70
2022-10-03T23:48:57.564Z,1.52
2022-10-03T23:53:01.808Z,2.15
2022-10-03T23:57:09.372Z,1.55
